Date,TemperatureHighF,TemperatureAvgF,TemperatureLowF,DewpointHighF,DewpointAvgF,DewpointLowF,HumidityHigh,HumidityAvg,HumidityLow,PressureMaxIn,PressureMinIn,WindSpeedMaxMPH,WindSpeedAvgMPH,GustSpeedMaxMPH,PrecipitationSumIn
2013-1-1,27.3,17.3,3.9,22.9,9.4,-3.5,95,71,54,29.78,29.55,31,14,43,0.12
2013-1-2,12.9,4.4,-2.5,2.7,-3.2,-9.6,80,70,59,29.98,29.77,27,14,36,0.03
2013-1-3,13.0,5.8,-1.1,2.9,-2.0,-7.8,78,70,58,30.02,29.89,20,9,29,0.03
2013-1-4,30.9,19.6,1.4,25.7,15.3,-2.4,93,83,74,29.83,29.66,18,10,24,0.30
2013-1-5,29.8,23.1,11.5,25.3,15.3,6.7,86,72,57,30.20,29.66,31,16,42,0.02
2013-1-6,29.4,19.3,10.1,22.0,14.9,4.9,90,83,72,30.16,29.86,14,4,19,0.20
2013-1-7,23.9,17.7,9.5,21.5,11.6,2.3,93,78,55,30.33,29.90,13,8,19,0.03
2013-1-8,34.5,23.4,9.4,24.0,18.0,5.6,92,80,62,30.31,30.13,12,7,16,0.03
2013-1-9,30.7,25.7,18.9,28.1,23.3,16.6,96,91,86,30.34,29.84,12,5,15,0.02
2013-1-10,36.9,33.9,27.0,31.6,26.1,20.2,90,73,63,30.47,29.85,40,24,55,0.00
2013-1-11,31.4,26.1,18.4,25.6,19.7,13.0,94,77,63,30.45,30.20,13,6,17,0.01
2013-1-12,34.0,31.4,27.4,34.0,31.2,26.2,100,99,82,30.20,30.07,11,3,14,0.10
2013-1-13,34.6,33.1,30.8,34.6,33.1,30.8,100,100,100,30.11,29.90,11,5,15,0.02
2013-1-14,53.4,38.6,32.1,53.4,35.2,24.3,100,88,70,30.17,29.81,28,11,38,0.02
2013-1-15,32.5,28.8,25.1,23.5,21.6,19.0,85,75,65,30.26,30.17,15,7,20,0.02
2013-1-16,24.7,23.4,20.3,23.2,21.5,18.7,100,93,81,30.20,29.74,14,5,18,0.44
2013-1-17,32.7,19.8,8.7,30.5,14.4,-2.3,100,81,54,30.08,29.71,21,9,30,0.02
2013-1-18,11.4,5.3,-2.1,-2.4,-6.1,-12.0,67,59,49,30.30,30.05,18,10,25,0.02
2013-1-19,27.8,16.5,7.4,21.4,12.4,1.3,94,84,70,30.24,29.89,11,4,14,0.02
2013-1-20,38.5,26.4,17.2,34.1,20.8,7.1,96,80,60,29.79,29.41,29,11,40,0.01
2013-1-21,18.5,12.0,3.1,5.3,0.9,-4.0,72,61,48,29.97,29.80,23,9,32,0.00
2013-1-22,14.0,7.3,1.0,5.8,-1.2,-11.9,83,68,53,29.94,29.73,17,9,25,0.01
2013-1-23,-1.1,-5.6,-9.4,-12.7,-16.6,-19.0,66,58,49,29.99,29.94,24,12,34,0.01
2013-1-24,6.0,1.2,-2.8,-9.5,-10.4,-11.6,68,57,47,30.03,29.86,27,19,38,0.00
2013-1-25,11.0,5.2,-2.3,-0.4,-3.5,-9.6,78,67,58,30.11,30.00,33,16,46,0.02
2013-1-26,12.9,7.6,2.2,-0.2,-3.6,-5.6,72,60,47,30.05,29.94,28,15,38,0.00
2013-1-27,16.9,9.2,3.5,2.0,-2.3,-6.2,70,59,46,30.34,30.06,27,19,37,0.01
2013-1-28,23.1,15.3,7.3,13.6,2.7,-5.7,90,59,36,30.34,30.02,15,6,21,0.07
2013-1-29,30.4,20.5,9.1,27.5,16.6,4.2,100,85,72,30.14,30.02,13,4,16,0.01
2013-1-30,44.0,34.6,27.5,44.0,34.6,27.5,100,100,100,30.09,29.42,18,10,22,0.23
2013-1-31,49.7,40.2,25.2,49.7,35.9,12.1,100,86,57,29.39,28.80,43,22,58,0.59
2013-2-1,23.6,17.1,9.9,12.7,6.5,1.3,72,63,56,29.95,29.38,27,18,39,0.00
2013-2-2,19.3,12.7,6.1,9.6,3.7,-0.4,80,67,50,30.10,29.95,13,8,19,0.00
2013-2-3,24.3,17.2,9.0,11.9,10.2,7.9,95,75,55,29.98,29.66,14,8,18,0.01
2013-2-4,20.4,15.5,9.3,10.9,6.2,-4.1,85,67,52,29.76,29.59,23,14,32,8.76
2013-2-5,19.1,10.3,1.8,1.8,-3.3,-6.2,72,54,38,29.95,29.76,20,9,29,0.00
2013-2-6,28.3,16.2,8.8,16.9,6.8,-3.0,82,66,51,30.20,29.87,20,9,28,0.02
2013-2-7,12.8,6.8,1.3,-3.7,-8.2,-11.4,64,50,35,30.50,30.21,17,12,24,8.72
2013-2-8,8.0,5.5,1.1,5.8,0.4,-8.6,94,80,51,30.48,29.95,21,12,28,0.18
2013-2-9,14.0,10.6,5.8,11.7,8.2,4.7,98,90,79,30.06,29.75,36,24,47,0.05
2013-2-10,29.3,17.8,8.7,10.5,5.7,1.1,79,60,43,30.30,30.07,20,12,26,0.61
2013-2-11,24.1,18.1,9.1,23.8,14.3,2.4,100,86,64,30.27,29.55,13,4,18,0.14
2013-2-12,36.3,31.4,24.6,30.7,28.4,24.6,100,89,79,29.71,29.48,18,10,26,0.82
2013-2-13,35.8,31.5,27.5,27.7,23.8,22.0,84,73,59,29.76,29.70,16,10,23,0.02
2013-2-14,34.5,28.2,22.0,22.7,19.6,15.5,81,70,56,29.95,29.70,19,8,26,0.01
2013-2-15,42.5,30.4,19.5,30.4,23.9,15.2,87,77,62,29.95,29.84,13,5,17,0.01
2013-2-16,31.8,27.9,21.5,26.8,22.0,10.0,91,79,59,29.91,29.77,19,10,25,0.07
2013-2-17,20.8,15.0,11.0,13.5,8.8,3.6,93,77,60,29.75,29.21,38,22,50,0.07
2013-2-18,23.1,14.0,5.9,8.7,3.0,-1.3,72,61,50,29.95,29.41,44,27,57,0.00
2013-2-19,34.9,25.4,13.8,33.8,11.7,0.1,100,59,30,30.03,29.59,14,9,19,0.28
2013-2-20,33.5,28.1,22.4,33.5,22.4,15.2,100,80,65,29.58,29.38,20,13,28,0.11
2013-2-21,22.2,18.8,12.5,18.7,12.3,5.4,86,76,70,30.08,29.59,24,15,32,0.01
2013-2-22,35.9,27.5,22.8,22.5,19.0,17.0,86,71,52,30.34,30.14,20,10,27,0.00
2013-2-23,29.0,25.7,21.5,29.0,23.7,16.8,100,92,81,30.30,29.99,14,6,18,0.15
2013-2-24,26.6,25.3,24.3,26.6,25.1,24.0,100,99,98,29.88,29.77,15,7,20,0.18
2013-2-25,37.7,28.9,22.0,29.4,25.5,20.8,98,88,70,30.18,29.87,9,4,0,0.95
2013-2-26,38.3,31.8,25.1,29.0,26.5,22.6,92,81,61,30.31,30.20,13,5,18,0.00
2013-2-27,31.4,27.6,25.6,30.4,26.4,22.3,100,95,87,30.21,29.70,17,10,23,0.66
2013-2-28,32.1,29.6,26.6,32.1,29.6,26.6,100,100,100,29.68,29.53,13,9,17,0.47
2013-3-1,32.2,28.8,27.0,31.2,28.6,27.0,100,99,95,29.64,29.52,14,8,18,0.10
2013-3-2,35.0,29.6,26.7,29.8,28.0,26.3,100,94,81,29.63,29.58,16,9,23,0.12
2013-3-3,35.6,30.4,26.4,30.6,28.0,25.3,100,91,81,29.59,29.50,21,7,26,0.02
2013-3-4,27.6,26.2,24.9,24.6,22.4,20.8,91,85,80,29.67,29.48,27,15,35,0.00
2013-3-5,40.1,32.8,26.1,34.9,30.2,22.5,100,90,82,30.08,29.69,15,11,21,0.01
2013-3-6,34.2,30.4,27.7,30.4,28.5,25.0,100,93,81,30.23,30.09,21,14,27,0.03
2013-3-7,30.7,28.3,26.3,24.3,23.6,22.9,88,82,76,30.19,30.09,24,16,32,0.02
2013-3-8,41.9,33.0,26.6,27.3,23.8,21.7,86,70,52,30.20,30.04,23,17,32,0.01
2013-3-9,49.1,36.1,26.3,27.0,22.2,18.2,72,58,36,30.33,30.18,18,10,25,13.35
2013-3-10,41.7,30.2,20.0,30.2,23.2,14.7,94,75,58,30.36,30.25,12,6,17,0.01
2013-3-11,43.4,34.2,29.1,34.5,31.8,27.8,100,92,69,30.26,30.09,15,10,20,0.01
2013-3-12,43.6,38.5,33.8,43.6,38.5,33.8,100,100,100,30.09,29.71,18,13,22,0.90
2013-3-13,43.6,37.7,29.3,42.7,34.1,25.9,100,87,65,29.71,29.65,18,10,24,0.03
2013-3-14,32.8,25.6,14.9,25.2,19.3,6.9,96,78,60,29.70,29.59,25,12,33,0.01
2013-3-15,30.2,19.7,10.8,20.4,9.6,4.0,87,66,43,29.73,29.55,22,12,30,0.00
2013-3-16,27.8,22.5,15.9,19.2,12.3,8.5,89,66,44,29.82,29.56,16,11,22,0.00
2013-3-17,22.7,17.1,10.4,10.3,5.0,0.6,82,60,41,30.22,29.82,28,12,37,0.00
2013-3-18,31.8,23.5,6.7,15.5,5.1,-0.8,70,46,32,30.36,30.22,14,9,20,0.00
2013-3-19,24.4,21.7,18.6,21.3,19.2,15.5,100,90,71,30.23,29.70,20,12,27,0.81
2013-3-20,31.0,23.1,14.4,23.7,19.1,12.3,100,86,65,29.70,29.54,21,11,27,0.16
2013-3-21,37.6,26.0,14.7,21.0,15.9,11.3,94,68,42,29.70,29.56,14,8,18,0.00
2013-3-22,34.1,25.7,19.0,18.9,16.2,12.7,78,67,50,29.60,29.55,16,10,22,0.00
2013-3-23,32.8,28.1,22.0,24.9,20.5,15.0,82,73,62,29.63,29.45,28,18,37,0.00
2013-3-24,39.0,32.5,26.8,26.6,24.6,20.7,83,73,56,29.75,29.62,21,14,30,0.00
2013-3-25,38.8,31.8,24.3,29.4,25.2,20.7,93,77,64,29.74,29.57,17,9,21,0.00
2013-3-26,42.4,35.1,26.7,26.9,24.7,20.9,83,67,49,29.70,29.55,20,13,28,0.00
2013-3-27,40.6,34.5,29.0,32.8,28.3,23.8,96,78,63,29.84,29.67,24,11,34,0.14
2013-3-28,45.5,36.6,30.1,34.3,31.1,28.8,100,82,54,29.94,29.84,14,7,19,0.03
2013-3-29,45.9,40.8,35.8,35.2,31.1,28.3,88,70,53,29.98,29.92,16,10,23,0.00
2013-3-30,47.7,38.9,30.6,30.8,23.8,16.7,89,59,30,30.05,29.96,16,10,23,0.00
2013-3-31,49.3,37.0,24.2,32.1,21.8,16.8,82,57,30,30.06,29.82,18,8,25,0.00
2013-4-1,47.9,36.1,29.2,38.4,32.3,19.6,100,87,66,29.82,29.44,22,11,29,0.54
2013-4-2,29.2,25.6,20.5,19.6,14.4,10.3,74,63,47,29.75,29.63,27,16,38,0.02
2013-4-3,34.4,28.0,22.6,20.2,15.1,9.7,90,59,42,29.98,29.73,24,18,33,0.01
2013-4-4,47.7,35.1,25.6,22.8,14.5,8.4,65,44,27,30.14,29.91,23,14,32,0.00
2013-4-5,51.0,39.2,31.4,26.4,23.3,19.0,74,55,28,29.91,29.64,25,12,33,0.00
2013-4-6,33.3,26.9,19.5,18.8,9.3,2.0,71,48,32,30.27,29.77,32,18,44,0.00
2013-4-7,43.2,32.7,21.4,33.7,21.4,9.5,86,63,46,30.27,29.89,22,10,29,0.00
2013-4-8,49.8,42.8,38.1,36.1,31.6,27.8,86,66,47,30.10,29.85,22,13,30,0.00
2013-4-9,40.7,36.8,33.9,39.5,34.7,28.7,100,92,73,30.10,29.88,13,8,17,0.20
2013-4-10,50.4,41.6,34.9,42.0,36.6,34.1,100,84,60,29.97,29.87,20,6,27,0.13
2013-4-11,43.8,39.1,32.9,36.5,25.1,18.0,92,60,36,30.14,29.85,17,9,24,0.00
2013-4-12,32.9,17.8,-105.9,28.8,9.9,-99.9,100,73,54,30.20,29.90,14,6,18,0.18
2013-4-13,42.8,-26.6,-105.9,35.2,-26.7,-105.9,100,90,62,29.90,29.77,14,4,19,0.02
2013-4-14,47.2,38.4,31.7,38.3,32.7,28.0,100,82,53,30.13,29.85,19,7,26,0.15
2013-4-15,52.3,39.7,30.3,35.9,30.7,26.6,95,73,39,30.35,30.13,15,9,22,0.00
2013-4-16,52.3,42.7,34.2,44.9,37.8,32.7,100,85,57,30.36,29.91,20,12,28,0.00
2013-4-17,53.4,46.2,38.6,49.8,31.7,24.9,100,60,37,30.33,29.91,22,14,31,0.01
2013-4-18,44.1,39.1,30.5,35.6,25.5,18.5,79,59,37,30.43,30.11,18,10,25,0.01
2013-4-19,67.3,55.0,44.2,57.0,48.2,33.4,100,79,61,30.11,29.60,21,14,28,0.00
2013-4-20,57.6,47.8,38.5,57.6,38.4,24.6,100,73,42,30.09,29.56,19,13,26,0.47
2013-4-21,44.6,36.3,29.5,24.3,18.7,14.9,68,50,32,30.65,30.09,21,14,29,0.00
2013-4-22,49.4,36.2,22.6,26.8,18.8,13.7,84,53,26,30.77,30.63,18,9,23,0.00
2013-4-23,44.6,33.8,23.6,36.4,29.1,20.3,96,83,64,30.63,30.22,13,6,18,0.00
2013-4-24,62.0,46.8,37.2,51.0,43.1,36.4,100,89,62,30.22,29.75,15,12,20,0.06
2013-4-25,54.9,47.7,40.8,44.7,33.9,26.0,100,64,34,30.25,29.73,21,12,29,0.01
2013-4-26,57.2,43.4,29.2,32.9,26.8,22.1,80,55,30,30.41,30.25,14,7,19,0.00
2013-4-27,60.7,47.1,36.7,36.0,31.6,26.6,84,58,31,30.38,30.26,13,6,17,0.00
2013-4-28,65.6,49.9,32.4,39.3,31.7,26.6,85,54,28,30.30,30.20,15,7,21,0.00
2013-4-29,63.6,50.1,34.9,42.3,35.2,28.3,78,58,33,30.23,30.16,15,7,21,0.00
2013-4-30,68.6,51.4,34.7,41.0,34.0,29.5,89,56,30,30.34,30.22,16,7,22,0.00
2013-5-1,73.1,56.1,37.5,37.5,32.9,26.6,66,44,25,30.41,30.34,17,7,24,0.00
2013-5-2,64.5,52.6,40.3,41.5,35.9,30.4,74,54,35,30.48,30.37,12,6,17,0.00
2013-5-3,64.3,49.6,33.5,43.9,36.1,26.3,88,62,41,30.52,30.35,15,8,21,0.00
2013-5-4,66.9,48.8,37.1,42.3,35.5,29.8,90,65,25,30.37,30.23,14,8,21,0.00
2013-5-5,67.6,48.8,32.9,67.6,40.0,27.7,100,77,27,30.30,30.19,15,8,21,0.00
2013-5-6,70.0,50.2,34.2,70.0,50.2,34.2,100,100,100,30.23,30.11,14,8,20,17.54
2013-5-7,76.9,55.0,36.6,76.9,55.0,36.6,100,100,100,30.14,30.05,18,8,25,0.00
2013-5-8,73.0,58.7,44.6,73.0,58.7,44.6,100,100,100,30.20,30.13,17,9,24,0.00
2013-5-9,59.1,55.1,51.8,59.1,55.1,51.8,100,100,100,30.13,29.89,13,8,16,0.39
2013-5-10,71.2,58.8,51.5,71.2,58.8,51.5,100,100,100,29.92,29.88,14,6,18,0.06
2013-5-11,60.2,54.4,49.3,60.2,54.4,49.3,100,100,100,29.92,29.65,14,10,18,0.56
2013-5-12,60.0,53.4,38.8,60.0,53.4,38.8,100,100,100,29.69,29.53,14,7,18,0.82
2013-5-13,52.3,42.7,33.4,52.3,42.7,33.4,100,100,100,29.98,29.69,21,9,28,0.00
2013-5-14,52.1,42.0,30.2,52.1,42.0,30.2,100,100,100,29.98,29.93,18,9,25,0.00
2013-5-15,60.2,46.6,34.0,60.2,46.6,34.0,100,100,100,29.98,29.64,20,9,27,0.14
2013-5-16,72.2,56.3,44.3,72.2,56.3,44.3,100,100,100,29.77,29.55,20,12,28,0.01
2013-5-17,60.2,51.3,43.6,60.2,51.3,43.6,100,100,100,30.17,29.77,21,12,28,0.00
2013-5-18,62.3,49.6,37.8,62.3,49.6,37.8,100,100,100,30.30,30.17,15,7,20,0.00
2013-5-19,62.0,48.1,39.7,62.0,48.1,39.7,100,100,100,30.34,30.22,15,6,20,0.03
2013-5-20,70.5,55.2,45.8,70.5,55.2,45.8,100,100,100,30.22,29.91,15,7,20,0.35
2013-5-21,55.8,50.6,47.7,55.8,50.6,47.7,100,100,100,30.03,29.94,11,6,15,0.42
2013-5-22,54.2,48.8,45.1,54.2,48.8,45.1,100,100,100,29.96,29.91,14,6,18,7.12
2013-5-23,66.2,55.3,46.4,66.2,55.3,46.4,100,100,100,29.94,29.77,14,9,20,0.04
2013-5-24,67.8,57.1,45.0,67.8,57.1,45.0,100,100,100,29.85,29.63,16,11,22,2.01
2013-5-25,45.0,41.4,40.9,45.0,37.3,-99.9,100,100,98,29.85,29.68,22,16,29,2.43
2013-5-26,49.0,43.2,40.2,49.0,43.2,-172.2,100,100,100,29.94,29.63,20,13,25,0.75
2013-5-27,61.7,49.3,34.6,61.7,49.3,34.6,100,100,100,30.13,29.93,26,10,34,0.00
2013-5-28,69.4,52.2,36.8,69.4,48.0,-99.9,100,100,100,30.20,30.13,14,6,19,0.02
2013-5-29,53.7,49.7,44.3,53.7,49.7,44.3,100,100,100,30.18,29.98,11,4,15,0.18
2013-5-30,110.8,68.0,51.6,99.9,67.6,51.6,100,100,100,30.02,29.95,16,6,21,0.00
2013-5-31,86.5,72.9,56.9,86.5,72.9,56.9,100,100,100,30.03,29.88,14,6,19,0.00
2013-6-1,88.8,75.2,60.9,88.8,75.2,60.9,100,100,100,29.91,29.79,23,6,31,0.00
2013-6-2,85.5,71.1,61.5,85.5,71.1,61.5,100,100,100,29.80,29.62,15,6,19,0.17
2013-6-3,75.2,62.9,53.0,75.2,61.1,47.0,100,94,75,29.80,29.70,16,5,20,0.01
2013-6-4,61.9,54.2,45.2,47.8,42.9,39.8,90,67,45,30.08,29.79,14,3,23,0.00
2013-6-5,70.0,57.2,44.8,44.6,39.6,32.8,83,55,26,30.19,30.08,10,2,13,0.00
2013-6-6,68.1,56.1,44.0,49.4,43.6,37.9,88,65,38,30.25,30.17,16,2,22,0.00
2013-6-7,58.3,52.6,48.2,51.5,48.3,41.0,96,86,54,30.17,29.99,10,2,18,0.59
2013-6-8,67.0,56.7,48.7,60.2,53.7,47.6,97,90,70,29.99,29.69,18,4,30,0.60
2013-6-9,71.7,61.8,54.0,61.0,55.1,51.7,98,80,55,30.15,29.97,16,3,24,0.00
2013-6-10,69.7,60.0,49.3,57.5,52.8,47.5,96,78,51,30.21,30.03,10,2,18,0.00
2013-6-11,56.4,53.5,51.7,54.0,52.2,50.9,97,95,90,30.03,29.57,20,3,26,1.19
2013-6-12,57.6,54.5,51.7,55.0,52.7,50.6,98,94,79,29.77,29.53,20,3,28,0.22
2013-6-13,67.8,57.8,47.6,56.5,50.7,47.1,98,79,49,29.79,29.70,16,2,20,0.00
2013-6-14,75.2,60.2,49.9,58.0,51.1,45.4,98,75,36,29.75,29.64,34,2,36,0.00
2013-6-15,72.0,59.8,46.6,52.4,44.7,40.2,94,60,33,29.90,29.73,24,4,32,0.00
2013-6-16,74.3,61.2,50.3,59.4,51.1,41.4,97,72,44,29.90,29.72,12,2,26,0.05
2013-6-17,78.6,62.4,51.5,63.1,56.9,51.0,98,84,49,29.87,29.72,14,2,20,0.02
2013-6-18,66.2,57.3,49.6,53.4,49.9,46.1,97,78,49,29.99,29.86,10,2,18,0.00
2013-6-19,71.2,58.4,44.3,52.2,45.5,39.5,97,66,33,30.16,29.95,16,2,24,0.00
2013-6-20,73.7,62.4,46.8,53.6,46.6,40.8,85,59,33,30.27,30.16,10,2,26,0.00
2013-6-21,78.8,63.4,50.9,59.1,51.9,47.2,93,69,40,30.24,30.18,16,2,22,0.00
2013-6-22,75.2,64.8,54.7,65.2,58.9,50.7,97,82,59,30.21,30.12,8,1,12,0.01
2013-6-23,78.2,68.0,62.0,71.3,65.5,61.2,98,92,76,30.14,29.96,12,2,16,0.46
2013-6-24,85.9,73.5,62.8,73.7,66.6,60.4,99,81,53,29.96,29.82,22,3,28,0.00
2013-6-25,85.7,73.0,62.7,73.5,65.5,58.8,98,79,54,29.86,29.70,16,2,18,0.40
2013-6-26,73.8,66.8,59.1,69.3,64.9,58.5,99,94,78,29.88,29.70,10,2,18,0.58
2013-6-27,68.1,60.4,56.3,64.1,59.1,55.5,98,96,86,29.88,29.83,12,2,16,0.04
2013-6-28,60.6,58.4,55.8,60.0,57.8,55.0,99,98,97,29.85,29.57,16,3,24,1.22
2013-6-29,76.7,65.8,59.9,72.1,64.4,59.6,100,95,81,29.68,29.55,12,2,24,0.81
2013-6-30,80.5,70.2,61.1,71.0,66.2,60.8,100,88,65,29.92,29.68,12,3,24,0.03
2013-7-1,74.8,68.4,63.1,70.7,66.8,62.8,100,95,85,30.11,29.92,10,2,16,0.16
2013-7-2,64.8,57.7,53.8,63.9,56.9,53.0,99,97,94,30.24,30.09,10,3,24,0.39
2013-7-3,82.2,66.5,56.3,74.6,64.2,56.0,99,93,72,30.22,30.10,16,2,20,0.87
2013-7-4,86.2,73.7,66.2,77.1,70.4,66.2,100,90,60,30.17,30.04,12,1,14,0.23
2013-7-5,87.7,75.7,66.2,76.8,69.7,65.9,100,83,55,30.11,30.00,12,2,18,0.00
2013-7-6,83.8,75.0,65.8,71.5,67.3,59.6,95,78,59,30.02,29.93,26,4,26,0.00
2013-7-7,82.0,72.9,64.0,71.7,65.7,59.4,89,79,59,29.98,29.90,10,2,16,0.00
2013-7-8,69.4,65.4,61.1,67.0,63.5,58.8,99,94,85,30.09,29.90,14,1,16,0.24
2013-7-9,73.2,65.8,62.8,67.4,64.1,62.3,99,94,77,30.14,30.08,12,2,12,0.03
2013-7-10,66.6,63.4,60.8,64.5,62.8,60.5,99,98,93,30.09,29.78,14,2,18,0.74
2013-7-11,77.4,67.6,59.9,71.0,65.7,57.6,100,94,76,29.99,29.76,8,1,26,0.82
2013-7-12,76.5,64.7,55.2,64.1,57.8,53.9,98,80,55,30.23,29.99,12,2,18,0.00
2013-7-13,79.9,67.6,54.2,66.7,59.8,53.7,99,79,49,30.33,30.22,10,2,16,0.00
2013-7-14,86.8,73.2,61.2,73.2,65.6,60.5,99,79,48,30.30,30.18,10,1,14,0.00
2013-7-15,87.3,75.1,63.0,73.6,67.3,62.2,98,78,52,30.19,30.07,14,2,26,0.00
2013-7-16,85.6,75.3,67.5,76.4,69.4,64.6,96,83,58,30.16,30.10,8,1,14,0.03
2013-7-17,87.8,75.4,63.3,75.2,68.0,61.5,97,79,57,30.17,29.93,14,2,40,0.25
2013-7-18,83.3,72.9,65.5,75.6,68.4,64.9,99,87,60,30.01,29.93,14,2,20,0.04
2013-7-19,89.3,77.8,66.7,77.6,71.3,66.1,99,82,61,29.95,29.61,20,3,26,0.01
2013-7-20,84.5,73.1,61.2,74.5,67.4,56.0,96,83,57,29.80,29.59,14,2,20,0.17
2013-7-21,73.2,65.2,58.0,64.8,59.2,55.6,96,82,63,30.03,29.80,12,2,20,0.00
2013-7-22,69.5,62.3,54.0,65.4,58.2,52.2,99,87,60,30.06,29.94,16,2,18,0.00
2013-7-23,66.1,60.9,57.4,65.2,60.0,56.5,99,97,93,29.94,29.55,6,1,16,2.86
2013-7-24,78.2,65.0,51.6,71.3,60.3,46.9,100,86,63,30.00,29.57,14,3,28,0.01
2013-7-25,70.6,58.9,46.8,60.8,52.4,44.6,95,80,59,30.14,29.99,14,2,22,0.00
2013-7-26,70.5,63.0,58.5,64.7,59.7,56.5,95,89,78,30.13,29.93,12,2,24,0.03
2013-7-27,80.8,69.2,59.0,67.0,61.5,56.7,96,78,51,30.02,29.92,14,3,20,0.00
2013-7-28,74.8,65.2,56.7,67.5,62.5,56.1,99,92,75,30.05,30.01,16,2,22,0.00
2013-7-29,73.7,65.0,60.1,68.0,63.4,59.5,99,95,81,30.06,29.98,16,2,22,0.16
2013-7-30,75.2,64.7,55.5,62.6,57.7,52.9,100,80,49,30.08,30.02,16,2,22,0.00
2013-7-31,77.4,65.3,52.0,64.5,57.4,51.2,98,78,46,30.13,30.03,12,2,20,0.00
2013-8-1,77.4,65.6,55.1,65.2,60.2,54.5,99,84,57,30.05,29.87,18,3,28,0.01
2013-8-2,76.7,64.0,58.9,68.8,61.7,58.5,99,93,62,29.86,29.74,10,2,20,1.22
2013-8-3,76.5,62.4,53.5,62.7,57.1,53.2,100,85,52,29.83,29.73,18,2,36,0.03
2013-8-4,73.1,60.4,52.9,61.1,55.6,50.5,97,85,56,29.85,29.75,16,2,28,0.10
2013-8-5,68.7,58.5,49.0,55.0,49.0,42.0,92,72,47,30.04,29.84,42,6,42,0.00
2013-8-6,75.2,60.6,46.2,57.5,51.4,44.2,96,74,46,30.16,30.03,10,2,24,0.00
2013-8-7,75.2,62.2,49.5,61.9,54.6,48.7,98,78,54,30.20,30.12,18,3,28,0.00
2013-8-8,70.8,63.4,57.7,67.6,61.4,56.0,98,93,87,30.12,30.01,12,2,20,0.04
2013-8-9,70.8,66.2,62.2,69.9,65.8,61.9,100,99,95,30.02,29.73,12,2,20,3.30
2013-8-10,74.7,64.7,52.1,64.8,56.2,47.7,100,77,42,29.99,29.74,18,3,32,0.01
2013-8-11,74.6,60.7,48.2,59.8,52.5,46.8,96,76,46,30.06,29.98,12,2,22,0.00
2013-8-12,77.5,64.1,51.7,64.3,55.7,50.3,97,76,47,30.01,29.90,12,1,18,0.00
2013-8-13,68.4,61.3,53.0,64.0,59.5,52.1,99,94,80,29.91,29.70,10,1,18,0.61
2013-8-14,72.0,62.9,53.4,63.8,56.8,47.4,99,82,55,29.88,29.64,24,4,40,0.05
2013-8-15,72.3,59.4,48.1,57.5,51.2,46.7,96,76,49,30.08,29.88,16,3,22,0.00
2013-8-16,75.2,61.3,48.4,60.8,53.9,47.6,98,79,47,30.19,30.08,14,1,16,0.00
2013-8-17,75.4,63.0,52.8,60.4,54.4,50.9,97,76,44,30.28,30.19,14,2,22,0.00
2013-8-18,73.0,60.9,48.5,64.8,55.7,47.8,98,84,61,30.28,30.06,8,1,12,0.00
2013-8-19,80.0,66.0,51.1,66.2,58.8,50.6,98,80,53,30.06,29.90,18,2,24,0.00
2013-8-20,81.4,69.0,59.7,70.3,61.7,56.7,94,79,54,30.07,29.96,8,1,22,0.00
2013-8-21,83.4,70.1,57.7,71.2,63.0,56.9,98,80,56,30.13,29.98,12,2,18,0.00
2013-8-22,83.3,71.6,61.1,71.6,64.0,59.7,97,79,54,29.99,29.76,14,2,20,0.00
2013-8-23,73.9,64.5,51.2,63.9,53.7,47.0,94,70,40,30.17,29.78,16,3,26,0.00
2013-8-24,74.8,59.7,46.2,58.3,49.8,44.8,96,73,39,30.33,30.17,8,2,18,0.00
2013-8-25,75.4,61.9,47.9,61.3,52.8,46.4,97,75,43,30.37,30.15,18,2,18,0.00
2013-8-26,74.7,64.1,56.6,67.3,60.9,54.3,98,90,72,30.15,29.88,16,2,18,0.10
2013-8-27,80.0,68.7,60.4,69.2,64.2,59.9,99,87,58,29.91,29.84,6,1,12,0.00
2013-8-28,80.3,68.4,60.6,72.2,65.5,60.3,99,91,66,30.02,29.86,14,1,20,0.30
2013-8-29,63.9,60.3,54.4,62.4,59.1,53.8,99,96,84,30.13,30.00,16,2,22,0.12
2013-8-30,79.0,65.8,53.4,70.9,62.4,53.1,100,90,67,30.04,29.77,8,1,22,0.00
2013-8-31,78.1,67.8,61.6,71.2,65.6,61.0,99,93,74,29.83,29.77,8,2,18,0.74
2013-9-1,79.8,70.5,65.5,70.4,67.1,65.1,100,90,61,29.92,29.76,10,1,14,0.40
2013-9-2,67.3,64.4,61.5,66.7,63.8,60.9,99,98,97,29.91,29.75,18,2,32,2.23
2013-9-3,77.0,66.2,57.0,69.7,64.3,56.4,100,94,74,29.78,29.68,10,1,14,0.09
2013-9-4,75.9,63.2,54.4,61.2,56.6,52.9,99,81,46,29.90,29.75,32,3,34,0.00
2013-9-5,65.8,55.2,43.0,56.8,47.5,38.0,97,78,41,30.15,29.86,16,2,26,0.10
2013-9-6,65.5,51.4,37.9,49.2,42.6,36.9,97,75,42,30.24,30.05,14,2,18,0.00
2013-9-7,72.1,57.3,45.6,59.0,51.2,44.5,96,82,49,30.05,29.79,14,2,24,0.01
2013-9-8,61.5,54.6,41.4,55.7,47.4,37.4,97,78,48,30.08,29.72,22,4,38,0.13
2013-9-9,65.0,51.3,36.7,51.0,42.8,35.5,96,75,41,30.21,30.07,16,2,18,0.00
2013-9-10,62.7,55.3,45.5,60.0,53.5,44.7,98,94,87,30.11,30.04,8,1,12,0.00
2013-9-11,87.9,71.6,60.3,76.7,67.5,59.7,100,88,65,30.07,29.88,12,2,24,0.33
2013-9-12,75.9,67.2,62.4,71.6,65.8,61.8,99,95,83,30.01,29.65,22,3,28,0.27
2013-9-13,66.6,61.2,52.5,64.8,60.4,51.8,100,98,91,29.73,29.59,16,2,24,0.50
2013-9-14,65.3,55.3,47.2,56.3,51.2,45.8,99,87,64,30.04,29.73,20,4,24,0.00
2013-9-15,67.6,53.8,42.3,55.3,48.2,41.5,98,83,53,30.13,30.01,18,2,20,0.00
2013-9-16,60.6,51.3,36.7,54.6,46.7,33.5,98,85,61,30.28,29.97,16,3,30,0.05
2013-9-17,63.1,47.1,33.8,45.3,39.1,32.4,97,77,44,30.43,30.28,14,2,20,0.00
2013-9-18,70.7,53.5,39.4,52.2,44.3,38.4,96,75,35,30.32,30.12,12,2,18,0.00
2013-9-19,73.9,58.4,44.8,56.7,50.1,43.4,97,77,42,30.14,30.02,10,2,16,0.00
2013-9-20,74.1,58.6,46.5,58.5,51.6,45.7,97,80,49,30.13,30.02,14,2,18,0.00
2013-9-21,67.3,57.7,47.8,61.5,54.6,47.3,99,90,66,30.03,29.75,20,5,34,0.00
2013-9-22,70.9,60.7,47.1,62.8,55.9,42.4,97,85,62,29.77,29.58,24,6,34,1.06
2013-9-23,47.7,46.3,44.7,42.5,40.3,39.1,85,80,75,29.96,29.76,22,6,32,0.00
2013-9-24,53.4,47.0,42.6,43.7,40.2,37.5,90,77,67,29.94,29.84,26,7,36,0.00
2013-9-25,59.8,50.4,42.7,48.7,44.4,39.9,93,80,63,30.01,29.89,16,2,18,0.00
2013-9-26,64.2,51.7,41.0,52.2,46.5,40.0,98,83,60,30.17,30.01,14,2,20,0.00
2013-9-27,69.0,56.5,49.1,56.0,50.5,48.3,98,82,53,30.28,30.17,10,1,18,0.00
2013-9-28,70.2,55.7,45.0,55.0,49.1,44.5,99,81,43,30.37,30.28,14,2,18,0.00
2013-9-29,67.3,53.1,42.9,55.2,46.9,41.4,99,82,46,30.28,30.14,16,2,18,0.00
2013-9-30,66.5,51.1,38.3,54.7,46.9,37.8,99,87,60,30.14,30.00,12,1,16,0.00
2013-10-1,74.1,57.4,42.0,55.9,49.4,41.5,99,78,40,30.00,29.84,14,2,20,0.00
2013-10-2,75.0,61.6,48.6,60.7,52.9,45.1,99,75,54,29.90,29.76,20,4,42,0.00
2013-10-3,72.2,58.5,48.3,50.1,45.3,42.4,86,63,40,30.07,29.90,18,3,22,0.00
2013-10-4,67.6,55.7,44.1,51.4,46.3,42.0,94,72,44,30.11,30.04,8,2,16,0.00
2013-10-5,62.8,53.3,47.1,48.0,44.1,40.0,89,72,48,30.17,30.09,12,2,14,0.00
2013-10-6,52.2,47.1,39.1,45.5,39.4,34.8,98,76,54,30.31,30.17,10,2,18,0.16
2013-10-7,64.9,54.0,46.2,64.6,53.4,45.4,100,98,95,30.23,29.75,30,3,38,0.40
2013-10-8,58.3,49.8,39.5,57.1,40.5,35.3,97,72,48,30.41,29.84,28,6,40,0.04
2013-10-9,61.1,46.1,33.3,43.9,38.6,32.3,98,78,44,30.51,30.38,18,2,18,0.00
2013-10-10,67.6,49.0,35.0,48.8,42.2,34.5,98,80,39,30.38,30.20,8,1,18,0.00
2013-10-11,68.2,53.4,40.0,53.7,46.1,39.2,98,79,47,30.21,30.15,6,1,16,0.00
2013-10-12,53.9,51.8,47.7,50.5,49.1,46.6,97,91,86,30.44,30.21,8,1,14,0.00
2013-10-13,53.3,50.3,48.4,49.5,47.9,46.3,97,92,85,30.48,30.40,10,1,10,0.00
2013-10-14,63.5,53.3,47.7,51.6,47.9,45.5,94,83,61,30.40,30.24,14,2,14,0.00
2013-10-15,63.9,54.3,46.0,52.8,49.7,45.2,98,85,64,30.31,30.21,12,2,18,0.00
2013-10-16,60.8,52.4,45.5,51.2,48.2,43.3,98,87,57,30.22,29.91,14,2,20,0.00
2013-10-17,67.9,54.1,46.0,56.0,48.6,43.5,98,83,52,29.91,29.73,14,1,16,0.00
2013-10-18,64.3,52.8,45.9,53.9,46.0,38.2,98,79,53,29.83,29.60,22,4,34,0.32
2013-10-19,62.2,51.1,41.4,46.6,40.5,35.6,88,68,43,29.93,29.75,14,3,24,0.00
2013-10-20,58.6,49.8,38.8,46.7,37.8,28.3,96,66,36,29.96,29.65,26,6,42,0.00
2013-10-21,59.1,46.6,34.6,42.8,36.8,31.1,90,70,43,30.09,29.96,12,3,20,0.00
2013-10-22,55.2,47.0,36.8,49.8,43.6,33.9,95,88,78,29.98,29.70,20,4,24,0.03
2013-10-23,51.1,41.0,30.9,35.3,31.2,28.6,93,70,42,29.77,29.60,16,2,16,0.00
2013-10-24,47.8,38.7,29.7,31.4,27.5,23.0,88,66,41,29.82,29.63,30,6,44,0.00
2013-10-25,47.5,38.9,31.4,31.2,27.6,23.9,86,64,45,30.10,29.82,24,6,36,0.00
2013-10-26,44.7,36.7,27.1,33.3,28.0,22.2,84,71,58,30.12,29.87,20,2,26,0.00
2013-10-27,53.3,42.2,33.7,37.2,31.9,25.2,90,68,43,30.01,29.79,32,5,32,0.00
2013-10-28,49.4,37.2,27.2,36.9,28.1,21.0,84,70,54,30.37,30.00,34,5,40,0.01
2013-10-29,44.8,32.5,23.4,24.0,18.4,12.4,85,59,29,30.47,30.37,12,2,18,0.00
2013-10-30,44.6,33.6,25.5,26.8,22.2,15.3,81,64,38,30.38,30.20,20,3,28,0.00
2013-10-31,47.1,37.0,27.5,46.6,34.1,24.6,98,89,76,30.26,29.78,14,1,16,0.33
2013-11-1,62.4,57.4,47.4,60.1,53.6,41.3,99,88,56,29.78,29.29,30,8,56,0.46
2013-11-2,61.9,50.9,38.0,45.0,40.7,35.5,91,69,46,29.80,29.55,18,4,30,0.11
2013-11-3,39.6,33.7,26.4,35.9,24.1,15.5,94,69,47,30.45,29.80,20,5,32,0.05
2013-11-4,39.1,28.9,21.6,19.2,15.7,13.6,80,59,36,30.75,30.45,18,2,20,0.00
2013-11-5,35.8,26.9,19.8,30.0,22.3,15.2,91,83,62,30.75,30.51,8,1,18,0.00
2013-11-6,51.1,40.7,29.1,43.0,35.7,26.8,92,83,65,30.52,29.96,16,4,28,0.00
2013-11-7,52.8,46.6,36.6,51.7,41.3,24.3,96,82,59,29.97,29.66,28,7,40,0.12
2013-11-8,40.6,35.2,28.0,27.6,24.3,22.0,82,64,51,29.99,29.77,32,10,42,0.00
2013-11-9,39.9,34.6,30.2,29.0,21.0,19.0,94,57,46,30.13,29.99,30,11,44,0.00
2013-11-10,36.5,32.1,29.8,35.0,31.2,29.0,98,96,93,30.06,29.73,7,1,9,0.12
2013-11-11,40.5,36.9,34.5,35.0,29.0,26.0,93,74,58,30.02,29.75,13,3,19,0.00
2013-11-12,36.5,28.8,25.0,30.0,18.2,14.0,83,65,53,30.12,29.81,14,6,24,0.00
2013-11-13,29.5,23.9,18.9,14.0,11.7,9.0,73,60,46,30.25,30.08,11,4,26,0.00
2013-11-14,44.2,32.8,23.7,28.0,22.9,14.0,88,68,50,30.08,30.00,12,2,15,0.00
2013-11-15,48.1,36.1,26.5,30.0,25.2,22.0,92,68,36,30.19,30.08,3,1,7,0.00
2013-11-16,54.3,39.2,29.6,32.0,26.5,22.0,84,64,29,30.35,30.20,6,1,6,0.00
2013-11-17,39.0,33.8,26.9,39.0,32.8,25.0,99,96,75,30.37,29.89,4,1,6,0.18
2013-11-18,59.7,48.6,38.2,55.0,41.6,29.0,100,79,54,29.88,29.41,13,3,25,0.43
2013-11-19,43.5,32.9,27.5,29.0,19.1,14.0,69,57,50,30.15,29.50,23,8,29,0.00
2013-11-20,36.3,28.2,23.0,14.0,11.2,9.0,61,50,34,30.59,30.16,11,3,23,0.00
2013-11-21,45.2,31.1,19.5,16.0,11.9,10.0,70,47,27,30.60,30.29,3,1,7,0.00
2013-11-22,36.1,32.3,26.9,33.0,25.0,11.0,97,76,46,30.28,29.73,2,0,4,0.02
2013-11-23,36.9,30.8,23.0,34.0,20.9,14.0,97,68,48,29.77,29.63,18,6,26,0.00
2013-11-24,22.6,17.7,14.4,12.0,2.9,-1.0,65,53,45,29.96,29.63,25,10,41,0.00
2013-11-25,24.4,18.1,11.1,9.0,1.6,-1.0,62,49,35,30.25,29.97,16,5,25,0.00
2013-11-26,30.7,26.7,22.4,27.0,22.0,8.0,95,83,53,30.26,30.13,6,1,8,0.08
2013-11-27,51.7,39.0,28.0,52.0,38.3,27.0,99,97,84,30.13,29.16,16,2,20,2.85
2013-11-28,33.7,23.5,15.2,29.0,12.9,5.0,83,64,48,30.34,29.24,19,7,28,0.00
2013-11-29,23.0,15.7,10.3,9.0,6.6,5.0,83,68,48,30.71,30.33,17,3,19,0.00
2013-11-30,25.8,17.9,8.3,19.0,9.3,5.0,85,71,43,30.78,30.38,9,2,18,0.00
2013-12-1,32.5,29.1,25.4,29.0,25.5,18.0,96,86,70,30.39,30.07,9,2,14,0.08
2013-12-2,32.4,30.8,28.4,32.0,30.1,27.0,98,97,96,30.07,29.90,4,1,10,0.05
2013-12-3,42.1,34.5,32.0,37.0,32.1,27.0,98,91,77,29.91,29.83,8,2,18,0.35
2013-12-4,36.1,31.5,26.5,27.0,24.6,21.0,88,76,66,30.18,29.84,15,4,17,0.00
2013-12-5,32.6,29.0,23.7,32.0,27.5,22.0,98,94,86,30.23,29.86,2,0,4,0.15
2013-12-6,40.8,36.0,32.3,38.0,32.0,21.0,99,86,63,30.06,29.82,11,2,14,0.27
2013-12-7,32.5,28.0,20.6,22.0,14.2,7.0,70,57,47,30.37,30.03,13,4,20,0.00
2013-12-8,24.2,20.1,16.3,12.0,7.1,4.0,70,58,46,30.55,30.36,11,2,16,0.00
2013-12-9,21.1,19.2,18.2,19.0,13.8,7.0,93,80,62,30.51,29.81,4,1,9,0.00
2013-12-10,30.9,22.8,17.1,28.0,19.2,12.0,96,86,72,29.85,29.70,9,2,15,0.00
2013-12-11,26.5,18.2,12.1,17.0,10.0,6.0,86,71,45,30.07,29.86,8,2,15,0.00
2013-12-12,14.5,10.0,5.9,6.0,-2.6,-7.0,69,58,44,30.21,29.94,8,3,13,0.00
2013-12-13,18.6,9.0,-1.3,8.0,-1.3,-10.0,85,64,45,30.35,29.85,14,4,26,0.00
2013-12-14,9.6,3.6,-2.8,2.0,-10.7,-99.9,84,54,37,30.59,30.36,9,-8,14,0.00
2013-12-15,17.0,10.2,4.1,13.0,7.0,1.0,92,87,83,30.38,29.45,10,3,18,1.06
2013-12-16,16.9,10.1,-1.5,10.0,1.3,-12.0,92,69,45,30.17,29.62,13,4,19,0.00
2013-12-17,8.8,2.1,-6.9,4.0,-6.3,-13.0,88,69,49,30.28,30.06,7,1,13,0.00
2013-12-18,29.8,18.5,7.5,18.0,12.7,4.0,92,79,58,30.05,29.82,8,2,17,0.04
2013-12-19,29.7,25.2,18.7,24.0,20.0,15.0,88,81,73,30.04,29.87,6,1,8,0.00
2013-12-20,32.7,29.9,28.6,29.0,26.3,23.0,95,86,78,30.08,29.88,6,1,7,0.00
2013-12-21,32.9,29.6,26.1,31.0,27.9,25.0,96,93,87,29.92,29.80,3,1,6,0.03
2013-12-22,31.6,25.7,22.4,31.0,24.5,21.0,96,95,94,30.06,29.84,7,2,11,0.57
2013-12-23,31.0,26.5,22.6,31.0,25.7,21.0,98,96,95,30.09,29.95,3,0,4,0.00
2013-12-24,23.3,13.2,6.3,20.0,9.9,1.0,89,86,79,30.15,30.05,0,0,0,0.00
2013-12-25,15.4,7.2,1.2,10.0,1.1,-99.9,91,82,77,30.52,30.14,0,-10,1,0.00
2013-12-26,17.3,12.8,6.1,16.0,10.8,4.0,94,91,89,30.48,30.07,1,0,3,0.15
2013-12-27,28.0,19.8,12.7,25.0,17.6,11.0,95,91,83,30.18,30.09,4,0,4,0.00
2013-12-28,32.8,25.7,15.2,30.0,23.9,13.0,96,93,86,30.12,29.89,6,0,8,0.00
2013-12-29,33.0,27.9,22.0,32.0,26.9,21.0,98,96,93,29.99,29.54,6,1,12,0.00
2013-12-30,27.9,16.2,-0.7,27.0,11.5,-6.0,97,82,59,30.16,29.50,15,3,23,0.00
2013-12-31,7.4,0.9,-4.4,1.0,-4.2,-9.0,89,79,65,30.13,30.01,12,1,14,0.00
2014-1-1,15.5,4.2,-4.6,7.0,-6.0,-99.9,90,73,54,30.39,30.07,16,-39,25,0.00
2014-1-2,0.5,-5.0,-8.8,-8.0,-12.4,-99.9,83,76,66,30.42,30.02,7,-19,17,0.00